sensor_id;sensor_type;location;lat;lon;timestamp;pressure;altitude;pressure_sealevel;temperature
82774;BMP280;72508;45.118;20.728;2024-02-26T00:01:45;99720.53;;;15.96
82774;BMP280;72508;45.118;20.728;2024-02-26T00:11:48;99702.31;;;15.79
82774;BMP280;72508;45.118;20.728;2024-02-26T00:21:50;99700.72;;;15.83
82774;BMP280;72508;45.118;20.728;2024-02-26T00:31:52;99697.56;;;15.81
82774;BMP280;72508;45.118;20.728;2024-02-26T00:41:53;99695.72;;;15.76
82774;BMP280;72508;45.118;20.728;2024-02-26T00:51:55;99684.91;;;15.73
82774;BMP280;72508;45.118;20.728;2024-02-26T01:01:57;99682.50;;;15.66
82774;BMP280;72508;45.118;20.728;2024-02-26T01:12:00;99682.50;;;15.61
82774;BMP280;72508;45.118;20.728;2024-02-26T01:22:03;99670.59;;;15.48
82774;BMP280;72508;45.118;20.728;2024-02-26T01:32:05;99680.38;;;15.48
82774;BMP280;72508;45.118;20.728;2024-02-26T01:42:07;99677.75;;;15.48
82774;BMP280;72508;45.118;20.728;2024-02-26T01:52:09;99674.56;;;15.41
82774;BMP280;72508;45.118;20.728;2024-02-26T02:02:12;99668.22;;;15.31
82774;BMP280;72508;45.118;20.728;2024-02-26T02:12:15;99680.06;;;15.29
82774;BMP280;72508;45.118;20.728;2024-02-26T02:22:17;99682.16;;;15.16
82774;BMP280;72508;45.118;20.728;2024-02-26T02:32:20;99671.53;;;15.01
82774;BMP280;72508;45.118;20.728;2024-02-26T02:42:23;99669.38;;;14.88
82774;BMP280;72508;45.118;20.728;2024-02-26T02:52:25;99676.16;;;14.79
82774;BMP280;72508;45.118;20.728;2024-02-26T03:02:26;99678.28;;;14.77
82774;BMP280;72508;45.118;20.728;2024-02-26T03:12:29;99680.91;;;14.71
82774;BMP280;72508;45.118;20.728;2024-02-26T03:22:31;99667.44;;;14.73
82774;BMP280;72508;45.118;20.728;2024-02-26T03:32:33;99669.81;;;14.69
82774;BMP280;72508;45.118;20.728;2024-02-26T03:42:35;99659.81;;;14.71
82774;BMP280;72508;45.118;20.728;2024-02-26T03:52:36;99657.69;;;14.68
82774;BMP280;72508;45.118;20.728;2024-02-26T04:02:38;99661.41;;;14.72
82774;BMP280;72508;45.118;20.728;2024-02-26T04:12:40;99661.91;;;14.64
82774;BMP280;72508;45.118;20.728;2024-02-26T04:22:42;99669.28;;;14.67
82774;BMP280;72508;45.118;20.728;2024-02-26T04:32:45;99659.81;;;14.71
82774;BMP280;72508;45.118;20.728;2024-02-26T04:42:46;99644.03;;;14.77
82774;BMP280;72508;45.118;20.728;2024-02-26T04:52:51;99662.44;;;14.71
82774;BMP280;72508;45.118;20.728;2024-02-26T05:02:53;99658.50;;;14.74
82774;BMP280;72508;45.118;20.728;2024-02-26T05:12:54;99666.13;;;14.65
82774;BMP280;72508;45.118;20.728;2024-02-26T05:22:56;99661.34;;;14.57
82774;BMP280;72508;45.118;20.728;2024-02-26T05:33:00;99684.03;;;14.63
82774;BMP280;72508;45.118;20.728;2024-02-26T05:43:01;99701.06;;;14.50
82774;BMP280;72508;45.118;20.728;2024-02-26T05:53:03;99698.97;;;14.53
82774;BMP280;72508;45.118;20.728;2024-02-26T06:03:05;99691.91;;;14.58
82774;BMP280;72508;45.118;20.728;2024-02-26T06:13:07;99696.72;;;14.71
82774;BMP280;72508;45.118;20.728;2024-02-26T06:23:08;99713.41;;;14.87
82774;BMP280;72508;45.118;20.728;2024-02-26T06:33:11;99721.13;;;15.04
82774;BMP280;72508;45.118;20.728;2024-02-26T06:43:13;99720.94;;;15.21
82774;BMP280;72508;45.118;20.728;2024-02-26T06:53:17;99736.00;;;15.31
82774;BMP280;72508;45.118;20.728;2024-02-26T07:03:18;99741.84;;;15.43
82774;BMP280;72508;45.118;20.728;2024-02-26T07:24:07;99744.06;;;15.92
82774;BMP280;72508;45.118;20.728;2024-02-26T07:34:08;99740.66;;;16.02
82774;BMP280;72508;45.118;20.728;2024-02-26T07:44:11;99767.81;;;16.33
82774;BMP280;72508;45.118;20.728;2024-02-26T07:54:12;99766.19;;;16.73
82774;BMP280;72508;45.118;20.728;2024-02-26T08:04:14;99761.09;;;16.97
82774;BMP280;72508;45.118;20.728;2024-02-26T08:14:19;99750.09;;;17.34
82774;BMP280;72508;45.118;20.728;2024-02-26T08:24:22;99743.34;;;17.92
82774;BMP280;72508;45.118;20.728;2024-02-26T08:34:24;99746.09;;;18.64
82774;BMP280;72508;45.118;20.728;2024-02-26T08:44:33;99750.00;;;18.71
82774;BMP280;72508;45.118;20.728;2024-02-26T08:54:35;99738.94;;;19.26
82774;BMP280;72508;45.118;20.728;2024-02-26T09:04:42;99735.72;;;19.81
82774;BMP280;72508;45.118;20.728;2024-02-26T09:15:05;99720.47;;;19.86
82774;BMP280;72508;45.118;20.728;2024-02-26T09:25:07;99724.00;;;20.42
82774;BMP280;72508;45.118;20.728;2024-02-26T09:46:10;99734.31;;;21.75
82774;BMP280;72508;45.118;20.728;2024-02-26T09:56:12;99730.16;;;22.31
82774;BMP280;72508;45.118;20.728;2024-02-26T10:06:36;99721.66;;;22.29
82774;BMP280;72508;45.118;20.728;2024-02-26T10:17:07;99718.44;;;23.10
82774;BMP280;72508;45.118;20.728;2024-02-26T10:27:09;99709.28;;;23.46
82774;BMP280;72508;45.118;20.728;2024-02-26T10:37:31;99688.16;;;23.91
82774;BMP280;72508;45.118;20.728;2024-02-26T10:47:35;99685.47;;;24.42
82774;BMP280;72508;45.118;20.728;2024-02-26T10:57:40;99687.97;;;24.47
82774;BMP280;72508;45.118;20.728;2024-02-26T11:07:44;99666.69;;;25.17
82774;BMP280;72508;45.118;20.728;2024-02-26T11:17:46;99683.97;;;25.07
82774;BMP280;72508;45.118;20.728;2024-02-26T11:27:54;99662.97;;;24.97
82774;BMP280;72508;45.118;20.728;2024-02-26T11:38:24;99643.56;;;25.86
82774;BMP280;72508;45.118;20.728;2024-02-26T11:48:32;99634.38;;;26.39
82774;BMP280;72508;45.118;20.728;2024-02-26T11:58:36;99622.53;;;26.56
82774;BMP280;72508;45.118;20.728;2024-02-26T12:08:44;99614.28;;;26.93
82774;BMP280;72508;45.118;20.728;2024-02-26T12:18:46;99615.88;;;26.97
82774;BMP280;72508;45.118;20.728;2024-02-26T12:28:48;99615.06;;;27.09
82774;BMP280;72508;45.118;20.728;2024-02-26T12:38:50;99605.88;;;27.45
82774;BMP280;72508;45.118;20.728;2024-02-26T12:48:55;99595.78;;;27.58
82774;BMP280;72508;45.118;20.728;2024-02-26T12:59:01;99604.00;;;27.14
82774;BMP280;72508;45.118;20.728;2024-02-26T13:09:03;99607.59;;;27.03
82774;BMP280;72508;45.118;20.728;2024-02-26T13:19:09;99629.78;;;27.31
82774;BMP280;72508;45.118;20.728;2024-02-26T13:29:18;99635.81;;;26.65
82774;BMP280;72508;45.118;20.728;2024-02-26T13:39:24;99638.63;;;26.40
82774;BMP280;72508;45.118;20.728;2024-02-26T13:49:26;99642.19;;;26.44
82774;BMP280;72508;45.118;20.728;2024-02-26T13:59:28;99642.75;;;26.10
82774;BMP280;72508;45.118;20.728;2024-02-26T14:09:29;99644.41;;;26.14
82774;BMP280;72508;45.118;20.728;2024-02-26T14:19:31;99653.06;;;26.08
82774;BMP280;72508;45.118;20.728;2024-02-26T14:29:33;99648.88;;;26.10
82774;BMP280;72508;45.118;20.728;2024-02-26T14:39:38;99661.75;;;26.05
82774;BMP280;72508;45.118;20.728;2024-02-26T14:50:06;99656.44;;;25.92
82774;BMP280;72508;45.118;20.728;2024-02-26T15:00:13;99664.47;;;25.68
82774;BMP280;72508;45.118;20.728;2024-02-26T15:10:15;99675.56;;;25.09
82774;BMP280;72508;45.118;20.728;2024-02-26T15:20:17;99681.88;;;24.38
82774;BMP280;72508;45.118;20.728;2024-02-26T15:30:18;99671.94;;;23.67
82774;BMP280;72508;45.118;20.728;2024-02-26T15:40:20;99685.22;;;23.37
82774;BMP280;72508;45.118;20.728;2024-02-26T15:50:23;99695.06;;;22.81
82774;BMP280;72508;45.118;20.728;2024-02-26T16:00:25;99698.78;;;22.45
82774;BMP280;72508;45.118;20.728;2024-02-26T16:10:26;99703.41;;;22.14
82774;BMP280;72508;45.118;20.728;2024-02-26T16:20:30;99703.75;;;21.81
82774;BMP280;72508;45.118;20.728;2024-02-26T16:30:31;99707.47;;;21.40
82774;BMP280;72508;45.118;20.728;2024-02-26T16:40:33;99722.31;;;21.19
82774;BMP280;72508;45.118;20.728;2024-02-26T16:50:36;99727.25;;;20.89
82774;BMP280;72508;45.118;20.728;2024-02-26T17:00:38;99748.66;;;20.56
82774;BMP280;72508;45.118;20.728;2024-02-26T17:10:40;99742.38;;;20.38
82774;BMP280;72508;45.118;20.728;2024-02-26T17:20:41;99771.13;;;20.23
82774;BMP280;72508;45.118;20.728;2024-02-26T17:30:46;99767.25;;;20.01
82774;BMP280;72508;45.118;20.728;2024-02-26T17:40:48;99786.63;;;19.88
82774;BMP280;72508;45.118;20.728;2024-02-26T17:50:50;99784.84;;;19.64
82774;BMP280;72508;45.118;20.728;2024-02-26T18:00:52;99794.34;;;19.52
82774;BMP280;72508;45.118;20.728;2024-02-26T18:10:54;99800.63;;;19.37
82774;BMP280;72508;45.118;20.728;2024-02-26T18:20:55;99808.84;;;19.21
82774;BMP280;72508;45.118;20.728;2024-02-26T18:30:57;99812.72;;;19.05
82774;BMP280;72508;45.118;20.728;2024-02-26T18:41:01;99808.69;;;18.89
82774;BMP280;72508;45.118;20.728;2024-02-26T18:51:03;99820.19;;;18.79
82774;BMP280;72508;45.118;20.728;2024-02-26T19:01:13;99821.66;;;18.66
82774;BMP280;72508;45.118;20.728;2024-02-26T19:11:15;99823.34;;;18.57
82774;BMP280;72508;45.118;20.728;2024-02-26T19:21:17;99835.66;;;18.43
82774;BMP280;72508;45.118;20.728;2024-02-26T19:31:19;99832.84;;;18.29
82774;BMP280;72508;45.118;20.728;2024-02-26T19:41:21;99848.00;;;18.28
82774;BMP280;72508;45.118;20.728;2024-02-26T19:51:22;99863.41;;;18.21
82774;BMP280;72508;45.118;20.728;2024-02-26T20:01:24;99874.06;;;18.11
82774;BMP280;72508;45.118;20.728;2024-02-26T20:11:26;99880.78;;;17.98
82774;BMP280;72508;45.118;20.728;2024-02-26T20:21:27;99888.78;;;17.93
82774;BMP280;72508;45.118;20.728;2024-02-26T20:31:29;99897.63;;;17.78
82774;BMP280;72508;45.118;20.728;2024-02-26T20:41:30;99909.78;;;17.74
82774;BMP280;72508;45.118;20.728;2024-02-26T20:51:32;99917.81;;;17.64
82774;BMP280;72508;45.118;20.728;2024-02-26T21:01:34;99927.88;;;17.62
82774;BMP280;72508;45.118;20.728;2024-02-26T21:11:36;99927.88;;;17.57
82774;BMP280;72508;45.118;20.728;2024-02-26T21:21:37;99933.75;;;17.44
82774;BMP280;72508;45.118;20.728;2024-02-26T21:31:39;99946.22;;;17.33
82774;BMP280;72508;45.118;20.728;2024-02-26T21:41:42;99949.66;;;17.33
82774;BMP280;72508;45.118;20.728;2024-02-26T21:51:45;99969.25;;;17.27
82774;BMP280;72508;45.118;20.728;2024-02-26T22:01:48;99989.88;;;17.25
82774;BMP280;72508;45.118;20.728;2024-02-26T22:11:50;99982.78;;;17.21
82774;BMP280;72508;45.118;20.728;2024-02-26T22:21:54;99986.47;;;17.09
82774;BMP280;72508;45.118;20.728;2024-02-26T22:31:55;100001.56;;;17.09
82774;BMP280;72508;45.118;20.728;2024-02-26T22:41:58;99997.34;;;17.03
82774;BMP280;72508;45.118;20.728;2024-02-26T22:52:01;99996.53;;;17.02
82774;BMP280;72508;45.118;20.728;2024-02-26T23:02:03;99987.81;;;16.96
82774;BMP280;72508;45.118;20.728;2024-02-26T23:12:05;99994.69;;;16.92
82774;BMP280;72508;45.118;20.728;2024-02-26T23:22:06;99996.28;;;16.88
82774;BMP280;72508;45.118;20.728;2024-02-26T23:32:08;100005.50;;;16.81
82774;BMP280;72508;45.118;20.728;2024-02-26T23:42:10;100017.94;;;16.75
82774;BMP280;72508;45.118;20.728;2024-02-26T23:52:11;100016.88;;;16.71
